Time;durP1;ratioP1;P1;durP2;ratioP2;P2;SDS_P1;SDS_P2;PMS_P1;PMS_P2;Temp;Humidity;BMP_temperature;BMP_pressure;BME280_temperature;BME280_humidity;BME280_pressure;Samples;Min_cycle;Max_cycle;Signal;HPM_P1;HPM_P2
2020/12/17 00:00:46;;;;;;;10.33;9.27;;;3.90;99.90;;;;;;6209490;23;20958;-83
2020/12/17 00:03:15;;;;;;;13.43;9.83;;;3.80;99.90;;;;;;6210708;23;20187;-83
2020/12/17 00:05:41;;;;;;;8.83;7.93;;;3.70;99.90;;;;;;6209330;23;20488;-84
2020/12/17 00:08:07;;;;;;;9.50;8.60;;;3.70;99.90;;;;;;6208733;23;20472;-84
2020/12/17 00:11:09;;;;;;;9.43;8.53;;;3.70;99.90;;;;;;6235479;23;20432;-84
2020/12/17 00:13:34;;;;;;;10.53;8.77;;;3.70;99.90;;;;;;6210066;23;20713;-83
2020/12/17 00:16:00;;;;;;;9.27;8.33;;;3.70;99.90;;;;;;6210240;23;20381;-82
2020/12/17 00:18:28;;;;;;;9.30;8.40;;;3.60;99.90;;;;;;6236568;23;20533;-82
2020/12/17 00:20:53;;;;;;;11.13;9.23;;;3.60;99.90;;;;;;6209566;23;20197;-82
2020/12/17 00:23:19;;;;;;;9.67;8.67;;;3.60;99.90;;;;;;6209759;23;20390;-82
2020/12/17 00:25:45;;;;;;;9.03;8.20;;;3.50;99.90;;;;;;6199095;23;20635;-82
2020/12/17 00:28:10;;;;;;;9.23;8.43;;;3.50;99.90;;;;;;6237581;23;20143;-82
2020/12/17 00:30:36;;;;;;;10.07;8.50;;;3.50;99.90;;;;;;6209488;23;20643;-82
2020/12/17 00:33:02;;;;;;;9.10;8.20;;;3.50;99.90;;;;;;6210228;23;20234;-82
2020/12/17 00:35:27;;;;;;;8.33;7.43;;;3.50;99.90;;;;;;6208795;23;20159;-82
2020/12/17 00:37:53;;;;;;;9.20;8.40;;;3.60;99.90;;;;;;6208772;23;20534;-82
2020/12/17 00:40:19;;;;;;;9.43;8.50;;;3.70;99.90;;;;;;6209391;23;20244;-82
2020/12/17 00:42:47;;;;;;;8.63;7.83;;;3.80;99.90;;;;;;6209323;23;20159;-83
2020/12/17 00:45:16;;;;;;;14.27;8.80;;;3.90;99.90;;;;;;6209746;23;20159;-83
2020/12/17 00:47:42;;;;;;;11.53;8.73;;;3.80;99.90;;;;;;6209560;23;20505;-83
2020/12/17 00:50:10;;;;;;;22.93;9.87;;;3.70;99.90;;;;;;6209029;23;20779;-83
2020/12/17 00:52:42;;;;;;;10.80;9.70;;;3.60;99.90;;;;;;6209600;23;20790;-83
2020/12/17 00:55:08;;;;;;;10.40;9.30;;;3.60;99.90;;;;;;6209768;23;20520;-83
2020/12/17 00:57:33;;;;;;;10.37;9.37;;;3.60;99.90;;;;;;6209654;23;20469;-83
2020/12/17 00:59:59;;;;;;;9.97;8.97;;;3.50;99.90;;;;;;6207764;23;20862;-83
2020/12/17 01:02:25;;;;;;;10.97;9.00;;;3.50;99.90;;;;;;6208908;23;20159;-83
2020/12/17 01:04:53;;;;;;;12.60;9.77;;;3.60;99.90;;;;;;6209899;23;20597;-83
2020/12/17 01:07:19;;;;;;;13.90;9.63;;;3.70;99.90;;;;;;6209702;23;20421;-83
2020/12/17 01:09:45;;;;;;;16.20;9.73;;;3.70;99.90;;;;;;6210286;23;20389;-82
2020/12/17 01:12:11;;;;;;;31.67;10.20;;;3.60;99.90;;;;;;6208962;23;20158;-82
2020/12/17 01:14:37;;;;;;;10.00;8.97;;;3.70;99.90;;;;;;6208976;23;20394;-82
2020/12/17 01:17:05;;;;;;;30.17;10.83;;;3.60;99.90;;;;;;6210156;23;20251;-82
2020/12/17 01:19:31;;;;;;;14.00;8.87;;;3.60;99.90;;;;;;6207757;23;20435;-83
2020/12/17 01:22:00;;;;;;;9.60;7.27;;;3.50;99.90;;;;;;6207746;23;20393;-82
2020/12/17 01:24:25;;;;;;;15.10;10.23;;;3.50;99.90;;;;;;6209617;23;20147;-83
2020/12/17 01:26:55;;;;;;;18.20;8.73;;;3.50;99.90;;;;;;6207286;23;20742;-83
2020/12/17 01:29:21;;;;;;;11.37;8.37;;;3.50;99.90;;;;;;6209099;23;20237;-83
2020/12/17 01:31:47;;;;;;;15.67;7.37;;;3.40;99.90;;;;;;6208532;23;20386;-83
2020/12/17 01:34:13;;;;;;;27.10;8.43;;;3.30;99.90;;;;;;6209307;23;20886;-83
2020/12/17 01:36:39;;;;;;;10.33;8.60;;;3.30;99.90;;;;;;6208669;23;20420;-83
2020/12/17 01:39:58;;;;;;;24.23;8.90;;;3.20;99.90;;;;;;6208809;23;20517;-83
2020/12/17 01:42:46;;;;;;;12.50;8.60;;;3.20;99.90;;;;;;6236847;23;20467;-84
2020/12/17 01:45:12;;;;;;;10.40;9.40;;;3.10;99.90;;;;;;6236239;23;20362;-83
2020/12/17 01:47:38;;;;;;;22.07;9.97;;;3.10;99.90;;;;;;6210147;23;20400;-83
2020/12/17 01:50:07;;;;;;;27.70;10.07;;;2.90;99.90;;;;;;6235840;23;20372;-83
2020/12/17 01:52:33;;;;;;;10.70;8.33;;;2.80;99.90;;;;;;6236082;23;20382;-83
2020/12/17 01:55:00;;;;;;;8.70;7.80;;;2.70;99.90;;;;;;6235499;23;20382;-83
2020/12/17 01:57:57;;;;;;;8.47;7.60;;;2.60;99.90;;;;;;6208661;23;20390;-83
2020/12/17 02:00:25;;;;;;;8.97;7.60;;;2.60;99.90;;;;;;6234692;23;20463;-83
2020/12/17 02:02:50;;;;;;;9.87;7.93;;;2.70;99.90;;;;;;6235041;23;20385;-83
2020/12/17 02:05:16;;;;;;;9.30;8.37;;;2.70;99.90;;;;;;6236338;23;20386;-83
2020/12/17 02:07:43;;;;;;;9.40;8.03;;;2.80;99.90;;;;;;6209151;23;20266;-82
2020/12/17 02:10:10;;;;;;;9.57;8.60;;;2.80;99.90;;;;;;6208804;23;20497;-83
2020/12/17 02:12:47;;;;;;;8.77;7.23;;;2.70;99.90;;;;;;6207854;23;20386;-83
2020/12/17 02:18:19;;;;;;;8.00;7.20;;;2.70;99.90;;;;;;6235440;23;20476;-82
2020/12/17 02:20:58;;;;;;;8.30;7.33;;;2.70;99.90;;;;;;6207723;23;20439;-82
2020/12/17 02:23:49;;;;;;;6.70;6.03;;;2.60;99.90;;;;;;6235243;23;20397;-82
2020/12/17 02:26:29;;;;;;;7.90;7.10;;;2.60;99.90;;;;;;6199935;23;20398;-82
2020/12/17 02:29:08;;;;;;;;;;;;;;;;;;;;;
2020/12/17 02:31:35;;;;;;;12.97;7.33;;;2.50;99.90;;;;;;6235647;23;20454;-82
2020/12/17 02:34:04;;;;;;;7.37;6.50;;;2.40;99.90;;;;;;6208648;23;20402;-82
2020/12/17 02:36:34;;;;;;;12.30;7.50;;;2.30;99.90;;;;;;6208925;23;20448;-82
2020/12/17 02:39:01;;;;;;;20.83;7.57;;;2.30;99.90;;;;;;6227367;23;20928;-82
2020/12/17 02:41:35;;;;;;;8.50;7.60;;;2.30;99.90;;;;;;6208032;23;20822;-82
2020/12/17 02:44:32;;;;;;;8.50;7.70;;;2.20;99.90;;;;;;6208220;23;20151;-82
2020/12/17 02:47:04;;;;;;;8.73;7.07;;;2.10;99.90;;;;;;6207220;23;20393;-82
2020/12/17 02:49:29;;;;;;;14.70;7.30;;;2.00;99.90;;;;;;6207196;23;20390;-82
2020/12/17 02:52:00;;;;;;;9.70;7.60;;;2.00;99.90;;;;;;6203133;23;20411;-82
2020/12/17 02:54:26;;;;;;;9.20;7.53;;;2.00;99.90;;;;;;6203373;23;20174;-83
2020/12/17 02:56:51;;;;;;;8.23;7.43;;;1.80;99.90;;;;;;6202867;23;20449;-82
2020/12/17 02:59:17;;;;;;;8.00;7.30;;;1.80;99.90;;;;;;6202189;23;20270;-82
2020/12/17 03:01:43;;;;;;;8.80;7.37;;;1.80;99.90;;;;;;6202969;23;20408;-82
2020/12/17 03:04:08;;;;;;;7.80;7.00;;;1.90;99.90;;;;;;6205638;23;20183;-82
2020/12/17 03:06:36;;;;;;;7.20;6.53;;;1.90;99.90;;;;;;6203427;23;20164;-83
2020/12/17 03:11:36;;;;;;;9.30;7.40;;;2.00;99.90;;;;;;6205636;23;20397;-83
2020/12/17 03:14:02;;;;;;;17.43;8.97;;;2.10;99.90;;;;;;6202530;23;20394;-83
2020/12/17 03:19:16;;;;;;;25.17;8.10;;;2.10;99.90;;;;;;6205224;23;20187;-83
2020/12/17 03:21:41;;;;;;;15.50;7.97;;;2.10;99.90;;;;;;6203135;23;20429;-83
2020/12/17 03:24:09;;;;;;;10.37;7.40;;;2.10;99.90;;;;;;6203223;23;20148;-83
2020/12/17 03:26:34;;;;;;;12.87;8.47;;;2.10;99.90;;;;;;6205326;23;20156;-83
2020/12/17 03:29:11;;;;;;;68.97;11.40;;;2.10;99.90;;;;;;6205259;23;20466;-83
2020/12/17 03:31:38;;;;;;;11.57;7.67;;;2.00;99.90;;;;;;6202617;23;20166;-82
2020/12/17 03:34:04;;;;;;;16.00;8.40;;;2.00;99.90;;;;;;6205205;23;20710;-82
2020/12/17 03:36:29;;;;;;;32.80;9.23;;;2.00;99.90;;;;;;6203095;23;20406;-82
2020/12/17 03:38:55;;;;;;;41.37;10.17;;;2.00;99.90;;;;;;6202342;23;20152;-82
2020/12/17 03:41:21;;;;;;;26.40;8.13;;;2.00;99.90;;;;;;6202327;23;20159;-82
2020/12/17 03:43:47;;;;;;;15.77;7.80;;;2.00;99.90;;;;;;6202616;23;20183;-82
2020/12/17 03:46:13;;;;;;;10.67;7.40;;;2.00;99.90;;;;;;6202871;23;20509;-82
2020/12/17 03:48:41;;;;;;;18.40;8.13;;;2.00;99.90;;;;;;6202549;23;20159;-83
2020/12/17 03:51:06;;;;;;;14.77;7.97;;;1.90;99.90;;;;;;6207612;23;20456;-83
2020/12/17 03:53:49;;;;;;;23.07;8.17;;;2.00;99.90;;;;;;6208261;23;20793;-82
2020/12/17 03:56:16;;;;;;;16.63;6.73;;;2.00;99.90;;;;;;6208323;23;20230;-82
2020/12/17 03:58:41;;;;;;;12.07;7.23;;;1.90;99.90;;;;;;6207560;23;20416;-83
2020/12/17 04:01:07;;;;;;;12.20;7.73;;;1.90;99.90;;;;;;6206691;23;20437;-83
2020/12/17 04:03:32;;;;;;;10.97;7.57;;;1.90;99.90;;;;;;6208119;23;20169;-82
2020/12/17 04:05:58;;;;;;;16.17;8.00;;;1.80;99.90;;;;;;6207865;23;20163;-83
2020/12/17 04:08:24;;;;;;;24.93;8.90;;;1.90;99.90;;;;;;6208692;23;20229;-83
2020/12/17 04:10:49;;;;;;;23.03;8.53;;;2.00;99.90;;;;;;6207254;23;20477;-83
2020/12/17 04:13:17;;;;;;;24.70;9.40;;;2.00;99.90;;;;;;6207778;23;20171;-82
2020/12/17 04:15:51;;;;;;;18.13;8.97;;;2.00;99.90;;;;;;6208577;23;20186;-82
2020/12/17 04:18:29;;;;;;;11.70;8.43;;;1.90;99.90;;;;;;6207236;23;20386;-82
2020/12/17 04:21:28;;;;;;;21.30;9.70;;;2.00;99.90;;;;;;6181990;23;20493;-82
2020/12/17 04:23:54;;;;;;;26.17;11.90;;;2.10;99.90;;;;;;6208143;23;20386;-82
2020/12/17 04:26:19;;;;;;;19.43;11.83;;;2.10;99.90;;;;;;6235025;23;20389;-82
2020/12/17 04:28:45;;;;;;;42.80;15.70;;;2.10;99.90;;;;;;6234009;23;20158;-82
2020/12/17 04:31:10;;;;;;;18.33;9.80;;;2.10;99.90;;;;;;6207095;23;20165;-82
2020/12/17 04:33:37;;;;;;;27.73;14.43;;;2.10;99.90;;;;;;6234202;23;20226;-83
2020/12/17 04:36:04;;;;;;;24.93;14.87;;;2.10;99.90;;;;;;6235186;23;20171;-82
2020/12/17 04:38:32;;;;;;;14.53;10.97;;;2.00;99.90;;;;;;6235061;23;20396;-82
2020/12/17 04:41:03;;;;;;;13.77;10.63;;;2.00;99.90;;;;;;6204578;23;20480;-82
2020/12/17 04:43:29;;;;;;;13.83;10.50;;;2.00;99.90;;;;;;6235832;23;20367;-82
2020/12/17 04:45:56;;;;;;;17.00;12.90;;;2.10;99.90;;;;;;6209593;23;20386;-83
2020/12/17 04:48:56;;;;;;;17.50;13.60;;;2.10;99.90;;;;;;6209636;23;20484;-83
2020/12/17 04:51:38;;;;;;;11.00;9.37;;;2.20;99.90;;;;;;6236642;23;20394;-83
2020/12/17 04:54:03;;;;;;;9.80;8.80;;;2.30;99.90;;;;;;6210295;23;20787;-83
2020/12/17 04:56:37;;;;;;;12.40;9.60;;;2.30;99.90;;;;;;6208536;23;20468;-82
2020/12/17 04:59:04;;;;;;;12.87;10.20;;;2.40;99.90;;;;;;6208581;23;20159;-83
2020/12/17 05:01:32;;;;;;;15.20;10.30;;;2.40;99.90;;;;;;6209268;23;20432;-82
2020/12/17 05:03:59;;;;;;;12.80;8.50;;;2.50;99.90;;;;;;6209160;23;20386;-83
2020/12/17 05:06:25;;;;;;;11.83;10.60;;;2.50;99.90;;;;;;6208929;23;20485;-83
2020/12/17 05:08:52;;;;;;;16.53;11.37;;;2.50;99.90;;;;;;6209948;23;20820;-82
2020/12/17 05:11:19;;;;;;;19.83;11.27;;;2.50;99.90;;;;;;6209652;23;20410;-83
2020/12/17 05:13:45;;;;;;;17.77;11.90;;;2.50;99.90;;;;;;6208875;23;20386;-82
2020/12/17 05:16:10;;;;;;;19.10;11.43;;;2.50;99.90;;;;;;6209618;23;20481;-82
2020/12/17 05:18:37;;;;;;;17.97;10.80;;;2.40;99.90;;;;;;6208876;23;20585;-82
2020/12/17 05:21:14;;;;;;;11.73;9.93;;;2.40;99.90;;;;;;6205754;23;20405;-82
2020/12/17 05:23:40;;;;;;;14.70;10.33;;;2.50;99.90;;;;;;6208263;23;20436;-82
2020/12/17 05:26:08;;;;;;;13.70;9.73;;;2.40;99.90;;;;;;6209907;23;21008;-82
2020/12/17 05:28:34;;;;;;;17.20;10.30;;;2.30;99.90;;;;;;6208781;23;20397;-82
2020/12/17 05:31:01;;;;;;;15.63;9.30;;;2.30;99.90;;;;;;6207212;23;20394;-82
2020/12/17 05:33:29;;;;;;;16.13;10.40;;;2.20;99.90;;;;;;6208453;23;20775;-82
2020/12/17 05:35:54;;;;;;;21.33;11.17;;;2.10;99.90;;;;;;6208668;23;20192;-83
2020/12/17 05:38:24;;;;;;;14.63;10.33;;;2.00;99.90;;;;;;6208115;23;21045;-82
2020/12/17 05:40:50;;;;;;;20.80;10.30;;;2.00;99.90;;;;;;6208995;23;20194;-82
2020/12/17 05:43:24;;;;;;;12.80;9.00;;;2.00;99.90;;;;;;6208391;23;20378;-82
2020/12/17 05:45:52;;;;;;;21.63;9.97;;;2.00;99.90;;;;;;6208906;23;20480;-82
2020/12/17 05:48:23;;;;;;;15.67;9.93;;;1.90;99.90;;;;;;6208149;23;20390;-82
2020/12/17 05:51:00;;;;;;;18.47;10.53;;;2.00;99.90;;;;;;6203387;23;20425;-82
2020/12/17 05:53:28;;;;;;;12.67;10.07;;;2.00;99.90;;;;;;6204037;23;20392;-83
2020/12/17 05:56:05;;;;;;;13.00;10.60;;;2.00;99.90;;;;;;6203817;23;20470;-82
2020/12/17 05:58:44;;;;;;;11.80;10.60;;;2.10;99.90;;;;;;6203526;23;20390;-83
2020/12/17 06:01:28;;;;;;;15.10;11.13;;;2.20;99.90;;;;;;6203771;23;20395;-83
2020/12/17 06:05:00;;;;;;;17.30;11.10;;;2.30;99.90;;;;;;6204428;23;20418;-82
2020/12/17 06:07:49;;;;;;;13.10;11.10;;;2.40;99.90;;;;;;6108196;23;20481;-82
2020/12/17 06:10:22;;;;;;;13.27;10.93;;;2.50;99.90;;;;;;6204195;23;20915;-82
2020/12/17 06:12:53;;;;;;;15.83;12.43;;;2.50;99.90;;;;;;6203618;23;20726;-83
2020/12/17 06:15:32;;;;;;;13.83;12.33;;;2.70;99.90;;;;;;6203994;23;20433;-86
2020/12/17 06:18:00;;;;;;;12.60;10.73;;;2.70;99.90;;;;;;6199374;23;20763;-86
2020/12/17 06:23:28;;;;;;;14.50;11.43;;;2.80;99.90;;;;;;6205039;23;20383;-85
2020/12/17 06:26:39;;;;;;;15.80;12.17;;;2.80;99.90;;;;;;6201024;23;20421;-86
2020/12/17 06:29:59;;;;;;;14.13;11.23;;;2.70;99.90;;;;;;6204464;23;20379;-86
2020/12/17 06:32:39;;;;;;;10.27;9.20;;;2.70;99.90;;;;;;6204311;23;20380;-86
2020/12/17 06:35:42;;;;;;;15.03;10.80;;;2.60;99.90;;;;;;6202329;23;20399;-86
2020/12/17 06:38:31;;;;;;;11.30;9.70;;;2.60;99.90;;;;;;6202780;23;20387;-85
2020/12/17 06:41:15;;;;;;;11.60;9.73;;;2.60;99.90;;;;;;6227865;23;20443;-86
2020/12/17 06:43:56;;;;;;;14.10;11.47;;;2.60;99.90;;;;;;6198994;23;20869;-87
2020/12/17 06:46:40;;;;;;;12.50;11.20;;;2.50;99.90;;;;;;6205194;23;20964;-86
2020/12/17 06:49:44;;;;;;;20.40;16.10;;;2.40;99.90;;;;;;6202642;23;20662;-86
2020/12/17 06:53:03;;;;;;;;;;;;;;;;;;;;;
2020/12/17 06:56:08;;;;;;;13.57;10.97;;;2.60;99.90;;;;;;6235975;23;20374;-86
2020/12/17 07:02:06;;;;;;;12.87;9.17;;;2.40;99.90;;;;;;6204329;23;20394;-86
2020/12/17 07:04:53;;;;;;;9.90;8.50;;;2.30;99.90;;;;;;6231989;23;20409;-86
2020/12/17 07:07:28;;;;;;;11.77;8.87;;;2.40;99.90;;;;;;6231328;23;20514;-87
2020/12/17 07:09:58;;;;;;;10.50;9.27;;;2.40;99.90;;;;;;6208080;23;20432;-86
2020/12/17 07:12:43;;;;;;;10.53;9.17;;;2.50;99.90;;;;;;6208392;23;20440;-86
2020/12/17 07:15:38;;;;;;;10.23;8.97;;;2.50;99.90;;;;;;6128640;23;20714;-87
2020/12/17 07:27:21;;;;;;;12.90;9.70;;;2.70;99.90;;;;;;6235780;23;20394;-89
2020/12/17 07:30:36;;;;;;;12.47;10.40;;;2.60;99.90;;;;;;6226367;23;20575;-90
2020/12/17 07:36:53;;;;;;;11.60;9.23;;;2.80;99.90;;;;;;6234912;23;20402;-89
2020/12/17 07:39:44;;;;;;;12.67;10.30;;;2.90;99.90;;;;;;6208019;23;20434;-90
2020/12/17 07:42:32;;;;;;;11.53;9.40;;;2.90;99.90;;;;;;6234987;23;20813;-90
2020/12/17 07:45:00;;;;;;;11.03;9.30;;;3.00;99.90;;;;;;6209158;23;20465;-87
2020/12/17 07:47:56;;;;;;;16.27;10.37;;;3.10;99.90;;;;;;6206286;23;20468;-87
2020/12/17 07:50:39;;;;;;;13.03;10.27;;;3.20;99.90;;;;;;6184195;23;21062;-87
2020/12/17 07:53:24;;;;;;;10.17;9.07;;;3.30;99.90;;;;;;6202840;23;20413;-85
2020/12/17 07:56:16;;;;;;;10.57;9.10;;;3.40;99.90;;;;;;6204397;23;20745;-88
2020/12/17 07:58:46;;;;;;;11.27;9.37;;;3.50;99.90;;;;;;6204479;23;20375;-87
2020/12/17 08:01:17;;;;;;;11.37;9.50;;;3.50;99.90;;;;;;6203027;23;20451;-87
2020/12/17 08:03:44;;;;;;;28.83;25.63;;;3.70;99.90;;;;;;6204723;23;20356;-87
2020/12/17 08:06:12;;;;;;;9.43;8.47;;;3.70;99.90;;;;;;6204646;23;20399;-87
2020/12/17 08:08:40;;;;;;;11.00;9.77;;;3.80;99.90;;;;;;6201616;23;20421;-87
2020/12/17 08:11:14;;;;;;;13.90;11.20;;;3.90;99.90;;;;;;6202696;23;20383;-87
2020/12/17 08:13:40;;;;;;;9.53;8.37;;;4.00;99.90;;;;;;6206222;23;20457;-86
2020/12/17 08:16:06;;;;;;;10.60;8.93;;;4.00;99.90;;;;;;6201836;23;20413;-83
2020/12/17 08:18:36;;;;;;;10.80;8.97;;;4.10;99.90;;;;;;6205912;23;20224;-83
2020/12/17 08:21:12;;;;;;;10.67;8.10;;;4.10;99.90;;;;;;6204831;23;20802;-83
2020/12/17 08:23:44;;;;;;;10.20;8.03;;;4.10;99.90;;;;;;6205918;23;20372;-83
2020/12/17 08:26:12;;;;;;;8.97;8.07;;;4.10;99.90;;;;;;6208310;23;20689;-84
2020/12/17 08:28:43;;;;;;;10.17;8.43;;;4.20;99.90;;;;;;6206451;23;20445;-83
2020/12/17 08:31:12;;;;;;;9.80;8.30;;;4.20;99.90;;;;;;6205206;23;20375;-84
2020/12/17 08:33:56;;;;;;;9.37;8.13;;;4.30;99.90;;;;;;6206143;23;20585;-85
2020/12/17 08:36:40;;;;;;;9.53;8.23;;;4.40;99.90;;;;;;6205566;23;20379;-83
2020/12/17 08:39:10;;;;;;;9.37;8.33;;;4.60;99.90;;;;;;6203675;23;20393;-85
2020/12/17 08:41:46;;;;;;;8.00;7.20;;;4.70;99.90;;;;;;6206295;23;20387;-85
2020/12/17 08:44:13;;;;;;;8.87;7.97;;;4.80;99.90;;;;;;6203455;23;20378;-84
2020/12/17 08:46:52;;;;;;;9.60;8.33;;;4.70;99.90;;;;;;6206780;23;20419;-85
2020/12/17 08:49:20;;;;;;;8.27;7.47;;;4.70;99.90;;;;;;6204763;23;20928;-84
2020/12/17 08:51:47;;;;;;;7.90;7.10;;;5.00;99.90;;;;;;6208992;23;20400;-84
2020/12/17 08:54:38;;;;;;;7.73;7.03;;;5.40;99.90;;;;;;6236474;23;20732;-84
2020/12/17 08:57:07;;;;;;;7.60;6.70;;;5.40;99.90;;;;;;6232883;23;20394;-85
2020/12/17 08:59:33;;;;;;;6.37;5.80;;;5.40;99.90;;;;;;6208061;23;20487;-84
2020/12/17 09:01:59;;;;;;;7.90;7.10;;;5.50;99.90;;;;;;6235147;23;20394;-86
2020/12/17 09:04:26;;;;;;;7.30;6.60;;;5.60;99.90;;;;;;6209742;23;20158;-83
2020/12/17 09:06:56;;;;;;;8.57;6.60;;;5.60;99.90;;;;;;6208836;23;20394;-84
2020/12/17 09:09:27;;;;;;;6.83;5.97;;;5.60;99.90;;;;;;6236620;23;20461;-85
2020/12/17 09:11:58;;;;;;;7.00;6.23;;;5.70;99.90;;;;;;6207905;23;20398;-87
2020/12/17 09:14:35;;;;;;;7.03;6.33;;;5.70;99.90;;;;;;6208875;23;20390;-89
2020/12/17 09:17:11;;;;;;;6.30;5.70;;;5.70;99.90;;;;;;6208409;23;20382;-84
2020/12/17 09:19:37;;;;;;;7.07;6.40;;;5.70;99.90;;;;;;6208484;23;20851;-85
2020/12/17 09:22:03;;;;;;;8.73;7.80;;;5.80;99.90;;;;;;6208749;23;20398;-84
2020/12/17 09:24:34;;;;;;;7.70;7.00;;;5.90;99.90;;;;;;6208815;23;20591;-84
2020/12/17 09:27:29;;;;;;;7.90;7.10;;;6.00;99.90;;;;;;6209439;23;20444;-84
2020/12/17 09:30:15;;;;;;;7.27;6.67;;;6.00;99.90;;;;;;6209844;23;20386;-85
2020/12/17 09:32:51;;;;;;;8.00;7.20;;;6.00;99.90;;;;;;6209304;23;20394;-86
2020/12/17 09:35:17;;;;;;;7.50;6.70;;;6.10;99.90;;;;;;6209054;23;20393;-84
2020/12/17 09:37:58;;;;;;;6.70;6.10;;;6.10;99.90;;;;;;6208867;23;20386;-86
2020/12/17 09:40:25;;;;;;;7.53;6.60;;;6.20;99.90;;;;;;6209315;23;20437;-84
2020/12/17 09:43:09;;;;;;;7.17;6.47;;;6.20;99.90;;;;;;6234141;23;20386;-88
2020/12/17 09:45:44;;;;;;;7.43;6.73;;;6.30;99.90;;;;;;6208799;23;20393;-87
2020/12/17 09:48:42;;;;;;;9.13;7.83;;;6.30;99.90;;;;;;6235521;23;20377;-88
2020/12/17 09:51:10;;;;;;;7.80;7.10;;;6.30;99.90;;;;;;6207547;23;20698;-88
2020/12/17 09:53:45;;;;;;;8.30;7.50;;;6.20;99.90;;;;;;6209196;23;20448;-87
2020/12/17 09:56:30;;;;;;;6.77;6.17;;;6.10;99.90;;;;;;6235012;23;20387;-89
2020/12/17 09:58:59;;;;;;;6.80;6.17;;;6.90;99.90;;;;;;6204574;23;20474;-86
2020/12/17 10:01:38;;;;;;;6.87;5.73;;;7.40;99.90;;;;;;6208816;23;20426;-89
2020/12/17 10:04:03;;;;;;;8.13;6.10;;;8.00;99.90;;;;;;6209228;23;20147;-89
2020/12/17 10:07:06;;;;;;;6.63;6.03;;;8.60;99.90;;;;;;6204253;23;20404;-89
2020/12/17 10:09:34;;;;;;;7.60;6.57;;;9.30;99.90;;;;;;6208703;23;20429;-89
2020/12/17 10:12:01;;;;;;;5.70;5.13;;;9.70;99.90;;;;;;6209096;23;20389;-90
2020/12/17 10:14:29;;;;;;;8.73;5.47;;;9.30;99.90;;;;;;6208549;23;20712;-90
2020/12/17 10:16:57;;;;;;;5.43;4.93;;;9.70;99.90;;;;;;6206922;23;20482;-88
2020/12/17 10:19:23;;;;;;;5.57;5.07;;;10.30;99.90;;;;;;6207620;23;20823;-88
2020/12/17 10:21:50;;;;;;;4.20;3.90;;;10.80;99.90;;;;;;6234545;23;20429;-88
2020/12/17 10:24:26;;;;;;;5.70;5.20;;;11.10;99.90;;;;;;6208669;23;20398;-86
2020/12/17 11:06:23;;;;;;;5.33;4.87;;;13.30;95.80;;;;;;6235127;23;20418;-85
2020/12/17 11:10:14;;;;;;;;;;;;;;;;;;;;;
2020/12/17 11:13:02;;;;;;;4.73;4.30;;;14.50;95.60;;;;;;6039534;23;20737;-90
2020/12/17 11:15:29;;;;;;;3.60;3.30;;;16.50;90.90;;;;;;6030283;23;20470;-83
2020/12/17 11:17:55;;;;;;;3.73;3.43;;;16.40;87.80;;;;;;6132112;23;20417;-85
2020/12/17 11:20:23;;;;;;;3.83;3.43;;;16.00;87.50;;;;;;6207285;23;20465;-84
2020/12/17 11:22:49;;;;;;;4.33;3.90;;;15.10;90.80;;;;;;6209762;23;20151;-87
2020/12/17 11:25:19;;;;;;;4.23;3.77;;;14.20;92.20;;;;;;6238223;23;20382;-85
2020/12/17 11:27:45;;;;;;;4.90;4.50;;;12.70;95.20;;;;;;6205784;23;20181;-83
2020/12/17 11:30:23;;;;;;;7.07;6.40;;;11.60;98.00;;;;;;6208670;23;20382;-86
2020/12/17 11:32:49;;;;;;;5.77;5.27;;;10.70;99.90;;;;;;6208223;23;20387;-86
2020/12/17 11:35:15;;;;;;;8.70;6.67;;;10.20;99.90;;;;;;6207843;23;20393;-84
2020/12/17 11:37:40;;;;;;;5.90;5.30;;;9.90;99.90;;;;;;6207248;23;20220;-83
2020/12/17 11:40:06;;;;;;;6.17;5.67;;;9.70;99.90;;;;;;6206460;23;21111;-83
2020/12/17 11:42:31;;;;;;;9.50;5.80;;;9.60;99.90;;;;;;6207565;23;20158;-84
2020/12/17 11:45:09;;;;;;;8.37;7.20;;;9.50;99.90;;;;;;6206336;23;20645;-84
2020/12/17 11:47:34;;;;;;;7.07;6.37;;;9.40;99.90;;;;;;6237804;23;20523;-84
2020/12/17 11:50:00;;;;;;;6.30;5.70;;;9.30;99.90;;;;;;6210732;23;20499;-84
2020/12/17 11:52:26;;;;;;;6.73;6.13;;;9.50;99.90;;;;;;6209090;23;20732;-86
2020/12/17 11:54:51;;;;;;;7.00;6.30;;;9.50;99.90;;;;;;6237717;23;20150;-86
2020/12/17 11:57:17;;;;;;;6.27;4.77;;;9.50;99.90;;;;;;6211140;23;20341;-85
2020/12/17 11:59:43;;;;;;;7.73;6.10;;;9.60;99.90;;;;;;6210041;23;20186;-85
2020/12/17 12:02:09;;;;;;;5.83;5.23;;;9.60;99.90;;;;;;6238002;23;20162;-85
2020/12/17 12:04:35;;;;;;;5.60;5.10;;;9.70;99.90;;;;;;6205872;23;20179;-86
2020/12/17 12:07:05;;;;;;;4.87;4.47;;;9.80;99.90;;;;;;6205536;23;20409;-86
2020/12/17 12:09:31;;;;;;;4.90;4.50;;;10.20;99.90;;;;;;6205463;23;20156;-85
2020/12/17 12:11:57;;;;;;;5.83;5.30;;;10.40;99.90;;;;;;6203746;23;20395;-86
2020/12/17 12:14:22;;;;;;;5.17;4.67;;;10.60;99.90;;;;;;6204758;23;20857;-86
2020/12/17 12:16:50;;;;;;;5.67;5.03;;;10.60;99.90;;;;;;6204837;23;20201;-86
2020/12/17 12:19:16;;;;;;;5.83;4.60;;;10.60;99.90;;;;;;6204119;23;20225;-86
2020/12/17 12:21:47;;;;;;;7.40;4.93;;;10.50;99.90;;;;;;6204568;23;20509;-86
2020/12/17 12:24:16;;;;;;;5.10;4.60;;;10.50;99.90;;;;;;6205810;23;20156;-86
2020/12/17 12:26:41;;;;;;;5.50;5.00;;;10.50;99.90;;;;;;6205066;23;20856;-87
2020/12/17 12:29:07;;;;;;;5.53;4.57;;;10.50;99.90;;;;;;6204694;23;20493;-85
2020/12/17 12:35:22;;;;;;;4.00;3.53;;;11.00;99.90;;;;;;6098455;23;20198;-86
2020/12/17 12:37:50;;;;;;;5.97;5.00;;;10.60;99.90;;;;;;6204106;23;20951;-86
2020/12/17 12:40:19;;;;;;;4.00;3.63;;;10.40;99.90;;;;;;6203765;23;20453;-86
2020/12/17 12:43:02;;;;;;;6.50;3.70;;;10.30;99.90;;;;;;6204463;23;20395;-86
2020/12/17 12:45:35;;;;;;;4.57;4.17;;;10.10;99.90;;;;;;6203465;23;20398;-86
2020/12/17 12:48:07;;;;;;;4.73;4.23;;;10.00;99.90;;;;;;6205432;23;20386;-86
2020/12/17 12:53:58;;;;;;;4.43;4.03;;;10.10;99.90;;;;;;6206066;23;20378;-86
2020/12/17 12:56:42;;;;;;;4.93;4.40;;;10.10;99.90;;;;;;6187664;23;20382;-87
2020/12/17 12:59:14;;;;;;;4.37;3.97;;;10.10;99.90;;;;;;6203862;23;20545;-86
2020/12/17 13:01:54;;;;;;;4.10;3.70;;;10.00;99.90;;;;;;6205217;23;20746;-86
2020/12/17 13:04:22;;;;;;;5.13;4.63;;;9.90;99.90;;;;;;6234868;23;20463;-86
2020/12/17 13:06:53;;;;;;;6.10;3.90;;;9.80;99.90;;;;;;6209449;23;20419;-86
2020/12/17 13:09:27;;;;;;;4.70;4.30;;;9.70;99.90;;;;;;6209246;23;20408;-86
2020/12/17 13:12:00;;;;;;;4.60;4.13;;;9.70;99.90;;;;;;6210128;23;20412;-87
2020/12/17 13:14:26;;;;;;;5.00;4.43;;;9.80;99.90;;;;;;6208970;23;20484;-86
2020/12/17 13:17:10;;;;;;;4.60;4.17;;;9.80;99.90;;;;;;6209917;23;20421;-86
2020/12/17 13:19:36;;;;;;;4.20;3.90;;;9.90;99.90;;;;;;6184090;23;20191;-86
2020/12/17 13:22:01;;;;;;;4.80;4.30;;;9.90;99.90;;;;;;6236775;23;20416;-85
2020/12/17 13:24:27;;;;;;;5.47;4.60;;;10.00;99.90;;;;;;6209764;23;20155;-87
2020/12/17 13:26:53;;;;;;;4.80;4.40;;;10.10;99.90;;;;;;6208751;23;20768;-86
2020/12/17 13:29:19;;;;;;;4.97;4.50;;;10.30;99.90;;;;;;6209068;23;20815;-90
2020/12/17 13:31:44;;;;;;;6.87;5.23;;;10.40;99.90;;;;;;6208576;23;20469;-86
2020/12/17 13:35:09;;;;;;;5.87;5.10;;;10.40;99.90;;;;;;6209658;23;20225;-87
2020/12/17 13:37:51;;;;;;;5.97;4.60;;;10.30;99.90;;;;;;6142731;23;20228;-89
2020/12/17 13:40:45;;;;;;;6.97;5.00;;;10.50;99.90;;;;;;6147825;23;20442;-86
2020/12/17 13:43:43;;;;;;;6.60;5.73;;;10.90;99.90;;;;;;6146070;23;20462;-86
2020/12/17 13:46:18;;;;;;;8.20;7.40;;;10.80;99.90;;;;;;6147512;23;20827;-86
2020/12/17 13:51:54;;;;;;;8.30;6.27;;;10.40;99.90;;;;;;6214178;23;20510;-87
2020/12/17 13:54:20;;;;;;;9.07;5.90;;;10.20;99.90;;;;;;6208902;23;20424;-86
2020/12/17 13:56:45;;;;;;;7.40;5.63;;;10.10;99.90;;;;;;6208031;23;20166;-86
2020/12/17 13:59:11;;;;;;;5.90;5.40;;;10.00;99.90;;;;;;6208144;23;20155;-86
2020/12/17 14:01:46;;;;;;;5.90;5.30;;;10.00;99.90;;;;;;6209048;23;20162;-86
2020/12/17 14:04:12;;;;;;;6.07;5.47;;;10.00;99.90;;;;;;6207811;23;20150;-85
2020/12/17 14:07:22;;;;;;;5.03;4.50;;;9.90;99.90;;;;;;6208183;23;21142;-87
2020/12/17 14:10:38;;;;;;;8.83;5.47;;;9.90;99.90;;;;;;6208243;23;20159;-87
2020/12/17 14:13:10;;;;;;;5.73;5.03;;;9.90;99.90;;;;;;6233206;23;20401;-88
2020/12/17 14:15:40;;;;;;;6.47;5.87;;;10.10;99.90;;;;;;6208806;23;20780;-87
2020/12/17 14:18:08;;;;;;;6.80;6.10;;;10.20;99.90;;;;;;6207268;23;20444;-86
2020/12/17 16:04:22;;;;;;;13.43;9.90;;;8.90;99.90;;;;;;6203959;22;20818;-86
2020/12/17 16:34:16;;;;;;;10.53;9.20;;;7.90;99.90;;;;;;6203000;23;20765;-89
2020/12/17 16:36:42;;;;;;;11.27;8.03;;;7.80;99.90;;;;;;6203750;23;20887;-88
2020/12/17 16:39:11;;;;;;;9.43;7.00;;;7.70;99.90;;;;;;6205881;23;20720;-89
2020/12/17 16:41:37;;;;;;;8.70;7.20;;;7.70;99.90;;;;;;6173501;23;20482;-87
2020/12/17 17:59:37;;;;;;;8.50;7.70;;;8.00;99.90;;;;;;6223617;22;20463;-89
2020/12/17 19:51:32;;;;;;;12.90;11.60;;;7.10;99.90;;;;;;6230996;22;20465;-88
2020/12/17 20:16:08;;;;;;;15.27;13.47;;;6.70;99.90;;;;;;6241555;23;20401;-85
2020/12/17 20:19:11;;;;;;;16.33;14.63;;;6.70;99.90;;;;;;6240735;23;20719;-85